Data for 11/06/2013

Time Sea-Level Adjusted Pressure Absolute Pressure Temperature Relative Humidity Dew Point   
(mb) (inHg) (mb) (inHg) (C) (F) (%) (C) (F)
00:05 1019 30.09 848 25.04 0.3 32.6 68 -4.8 23.3
00:10 1019 30.09 848 25.04 0.4 32.7 65 -5.5 22.1
00:15 1019 30.09 848 25.04 0.6 33.1 64 -5.4 22.3
00:20 1019 30.09 849 25.07 0.8 33.4 63 -5.5 22.1
00:25 1019 30.09 848 25.04 0.8 33.5 62 -5.7 21.8
00:30 1019 30.09 848 25.04 0.8 33.4 62 -5.6 21.9
00:35 1019 30.09 848 25.04 0.8 33.5 62 -5.6 22
00:40 1019 30.09 848 25.04 0.9 33.6 63 -5.4 22.3
00:45 1019 30.09 849 25.07 1 33.8 63 -5.2 22.6
00:50 1019 30.09 849 25.07 1.1 33.9 64 -5 22.9
00:55 1019 30.09 849 25.07 1.1 33.9 65 -4.8 23.3
01:00 1019 30.09 848 25.04 1 33.9 65 -4.9 23.2
01:05 1019 30.09 848 25.04 1.1 33.9 65 -4.7 23.5
01:10 1019 30.09 848 25.04 1 33.8 66 -4.7 23.5
01:15 1019 30.09 848 25.04 1 33.8 65 -4.8 23.4
01:20 1019 30.09 849 25.07 1 33.7 66 -4.6 23.7
01:25 1019 30.09 849 25.07 0.9 33.6 66 -4.8 23.3
01:30 1019 30.09 849 25.07 0.6 33.1 65 -5.2 22.6
01:35 1019 30.09 849 25.07 0.6 33.1 65 -5.2 22.7
01:40 1019 30.09 849 25.07 0.6 33.1 67 -4.9 23.1
01:45 1019 30.09 849 25.07 0.5 32.9 65 -5.2 22.6
01:50 1019 30.09 849 25.07 0.6 33 67 -4.9 23.2
01:55 1019 30.09 849 25.07 0.5 33 68 -4.6 23.7
02:00 1019 30.09 849 25.07 0.3 32.5 69 -4.7 23.5
02:05 1019 30.09 849 25.07 0.2 32.4 68 -5 23
02:10 1019 30.09 849 25.07 0.3 32.5 69 -4.7 23.5
02:15 1019 30.09 849 25.07 0.3 32.5 68 -5 23
02:20 1019 30.09 849 25.07 0.3 32.6 70 -4.5 23.9
02:25 1019 30.09 849 25.07 0.1 32.3 70 -4.8 23.4
02:30 1019 30.09 849 25.07 0.2 32.3 67 -5.2 22.6
02:35 1019 30.09 848 25.04 0.3 32.5 68 -5 23
02:40 1019 30.09 848 25.04 0.3 32.6 71 -4.4 24.1
02:45 1019 30.09 848 25.04 0 32 72 -4.4 24.1
02:50 1019 30.09 849 25.07 -0.2 31.7 72 -4.6 23.8
02:55 1019 30.09 849 25.07 -0.2 31.6 72 -4.7 23.5
03:00 1019 30.09 849 25.07 -0.1 31.8 73 -4.5 23.9
03:05 1019 30.09 848 25.04 0.1 32.3 70 -4.6 23.7
03:10 1019 30.09 848 25.04 0.7 33.3 67 -4.6 23.6
03:15 1019 30.09 848 25.04 0.9 33.7 62 -5.5 22.2
03:20 1019 30.09 848 25.04 1.1 33.9 61 -5.6 21.9
03:25 1019 30.09 848 25.04 1.2 34.2 60 -5.7 21.8
03:30 1019 30.09 849 25.07 1.3 34.3 59 -5.9 21.5
03:35 1019 30.09 849 25.07 1.4 34.5 60 -5.6 21.9
03:40 1019 30.09 849 25.07 1.3 34.4 60 -5.6 21.9
03:45 1020 30.12 849 25.07 1.4 34.5 62 -5.2 22.6
03:50 1019 30.09 849 25.07 1.4 34.4 63 -4.8 23.3
03:55 1020 30.12 849 25.07 1.3 34.3 64 -4.7 23.5
04:00 1020 30.12 849 25.07 1.2 34.1 67 -4.4 24.1
04:05 1019 30.09 849 25.07 1 33.7 64 -5 23
04:10 1019 30.09 849 25.07 1 33.8 66 -4.7 23.6
04:15 1019 30.09 849 25.07 0.9 33.7 65 -5 23
04:20 1019 30.09 849 25.07 0.8 33.5 68 -4.4 24.1
04:25 1019 30.09 849 25.07 0.4 32.8 70 -4.5 23.9
04:30 1019 30.09 849 25.07 0.4 32.7 70 -4.4 24
04:35 1019 30.09 849 25.07 0.4 32.8 70 -4.3 24.2
04:40 1019 30.09 849 25.07 0.6 33.1 70 -4.2 24.5
04:45 1019 30.09 849 25.07 0.6 33.1 71 -4.2 24.5
04:50 1019 30.09 849 25.07 0.6 33 70 -4.3 24.2
04:55 1019 30.09 849 25.07 0.6 33 70 -4.3 24.3
05:00 1019 30.09 849 25.07 0.6 33.2 69 -4.3 24.2
05:05 1019 30.09 849 25.07 0.8 33.5 70 -4 24.9
05:10 1019 30.09 849 25.07 0.8 33.5 71 -3.9 25
05:15 1019 30.09 849 25.07 0.9 33.6 70 -4 24.7
05:20 1019 30.09 849 25.07 1 33.7 70 -3.9 24.9
05:25 1020 30.12 849 25.07 0.8 33.4 71 -3.9 25
05:30 1020 30.12 849 25.07 0.6 33 71 -4 24.7
05:35 1020 30.12 849 25.07 0.5 32.9 70 -4.3 24.3
05:40 1020 30.12 849 25.07 0.6 33.1 67 -4.8 23.3
05:45 1020 30.12 849 25.07 0.9 33.6 64 -5.2 22.7
05:50 1019 30.09 849 25.07 1.3 34.4 61 -5.4 22.2
05:55 1019 30.09 849 25.07 1.7 35 58 -5.7 21.7
06:00 1020 30.12 849 25.07 2.1 35.8 54 -6.3 20.7
06:05 1020 30.12 849 25.07 2.5 36.5 53 -6.1 21.1
06:10 1020 30.12 849 25.07 2.6 36.8 52 -6.1 20.9
06:15 1020 30.12 849 25.07 2.7 36.9 53 -6 21.1
06:20 1020 30.12 849 25.07 2.7 36.8 55 -5.5 22.2
06:25 1020 30.12 849 25.07 2.6 36.7 56 -5.2 22.6
06:30 1020 30.12 849 25.07 2.7 36.9 57 -5 23.1
06:35 1020 30.12 849 25.07 2.7 36.8 56 -5.4 22.3
06:40 1020 30.12 849 25.07 2.7 36.9 54 -5.8 21.6
06:45 1020 30.12 849 25.07 2.7 36.9 54 -5.7 21.7
06:50 1020 30.12 849 25.07 2.5 36.4 54 -5.9 21.5
06:55 1020 30.12 849 25.07 2.3 36.1 56 -5.6 21.9
07:00 1020 30.12 849 25.07 2.1 35.8 55 -5.9 21.3
07:05 1020 30.12 849 25.07 2.2 35.9 55 -5.9 21.3
07:10 1020 30.12 849 25.07 2.3 36.1 54 -6 21.1
07:15 1020 30.12 849 25.07 2.5 36.5 54 -5.8 21.5
07:20 1020 30.12 849 25.07 2.5 36.5 54 -5.8 21.6
07:25 1020 30.12 849 25.07 2.5 36.6 54 -6 21.3
07:30 1020 30.12 849 25.07 2.6 36.6 54 -5.8 21.6
07:35 1020 30.12 849 25.07 2.5 36.5 55 -5.6 21.8
07:40 1020 30.12 849 25.07 2.4 36.4 55 -5.8 21.6
07:45 1020 30.12 849 25.07 2.3 36.2 56 -5.5 22.1
07:50 1020 30.12 849 25.07 2.3 36.1 56 -5.6 21.8
07:55 1020 30.12 849 25.07 2.2 36 56 -5.6 21.8
08:00 1020 30.12 849 25.07 2.2 36 56 -5.6 21.9
08:05 1020 30.12 850 25.1 2.1 35.8 56 -5.8 21.6
08:10 1020 30.12 850 25.1 2.1 35.7 56 -5.9 21.4
08:15 1020 30.12 850 25.1 2.2 35.9 55 -6 21.3
08:20 1021 30.15 850 25.1 2.3 36.2 54 -6 21.1
08:25 1021 30.15 850 25.1 2.5 36.5 54 -6 21.2
08:30 1021 30.15 850 25.1 2.5 36.5 54 -5.8 21.5
08:35 1021 30.15 850 25.1 2.4 36.3 55 -5.8 21.5
08:40 1021 30.15 850 25.1 2.3 36.1 54 -6.1 21.1
08:45 1021 30.15 850 25.1 2.3 36.2 54 -6 21.3
08:50 1021 30.15 850 25.1 2.3 36.2 55 -5.8 21.6
08:55 1021 30.15 850 25.1 2.2 36 56 -5.7 21.7
09:00 1021 30.15 850 25.1 2.2 36 56 -5.6 21.9
09:05 1021 30.15 851 25.13 2.2 36 55 -5.8 21.6
09:10 1021 30.15 851 25.13 2.3 36.2 56 -5.7 21.8
09:15 1022 30.18 851 25.13 2.4 36.3 56 -5.6 22
09:20 1022 30.18 851 25.13 2.5 36.5 56 -5.5 22.1
09:25 1022 30.18 851 25.13 2.6 36.7 55 -5.5 22.2
09:30 1022 30.18 851 25.13 2.6 36.8 56 -5.3 22.4
09:35 1022 30.18 851 25.13 2.6 36.8 56 -5.3 22.4
09:40 1022 30.18 851 25.13 2.7 36.8 55 -5.4 22.3
09:45 1022 30.18 851 25.13 2.4 36.3 58 -5.1 22.7
09:50 1022 30.18 851 25.13 2.1 35.7 59 -5.2 22.6
09:55 1022 30.18 851 25.13 2.1 35.8 58 -5.3 22.5
10:00 1022 30.18 851 25.13 2.1 35.8 58 -5.4 22.3
10:05 1022 30.18 851 25.13 2.2 36 58 -5.3 22.4
10:10 1022 30.18 851 25.13 2.2 36 58 -5.3 22.5
10:15 1022 30.18 851 25.13 2.1 35.8 58 -5.4 22.2
10:20 1022 30.18 851 25.13 2 35.6 58 -5.4 22.2
10:25 1022 30.18 851 25.13 2 35.6 56 -5.8 21.6
10:30 1022 30.18 851 25.13 2 35.6 57 -5.6 22
10:35 1022 30.18 852 25.16 2 35.6 56 -5.8 21.5
10:40 1022 30.18 852 25.16 2.2 35.9 57 -5.5 22.1
10:45 1022 30.18 852 25.16 2.1 35.8 56 -5.7 21.8
10:50 1022 30.18 852 25.16 2.2 36 56 -5.7 21.7
10:55 1023 30.21 852 25.16 2.6 36.6 55 -5.5 22.1
11:00 1023 30.21 852 25.16 2.8 37 55 -5.3 22.4
11:05 1023 30.21 852 25.16 2.8 37.1 54 -5.6 21.9
11:10 1023 30.21 852 25.16 3.1 37.5 51 -6 21.2
11:15 1023 30.21 852 25.16 3.5 38.2 49 -6.3 20.6
11:20 1023 30.21 852 25.16 3.8 38.8 49 -5.9 21.3
11:25 1023 30.21 852 25.16 3.9 39 48 -6.2 20.8
11:30 1023 30.21 852 25.16 4 39.2 47 -6.4 20.5
11:35 1023 30.21 852 25.16 4.2 39.5 46 -6.3 20.7
11:40 1023 30.21 852 25.16 4.3 39.8 43 -7.2 19.1
11:45 1023 30.21 852 25.16 4.4 40 44 -6.8 19.8
11:50 1023 30.21 852 25.16 4.5 40.1 43 -7.1 19.3
11:55 1023 30.21 852 25.16 4.5 40.1 41 -7.6 18.3
12:00 1023 30.21 852 25.16 4.5 40.2 40 -7.8 18
12:05 1023 30.21 852 25.16 4.6 40.3 40 -7.9 17.8
12:10 1023 30.21 852 25.16 4.7 40.4 39 -8.1 17.4
12:15 1023 30.21 852 25.16 4.7 40.5 40 -7.8 17.9
12:20 1023 30.21 852 25.16 4.8 40.6 38 -8.3 17.1
12:25 1023 30.21 852 25.16 4.8 40.7 39 -7.9 17.8
12:30 1023 30.21 852 25.16 5.1 41.2 39 -7.8 18
12:35 1023 30.21 852 25.16 5.5 41.8 38 -7.9 17.8
12:40 1023 30.21 852 25.16 6 42.8 38 -7.2 19
12:45 1023 30.21 852 25.16 5.8 42.5 36 -8.3 17.1
12:50 1023 30.21 852 25.16 5.5 41.8 35 -8.7 16.4
12:55 1023 30.21 852 25.16 5.2 41.4 35 -8.9 16
13:00 1023 30.21 852 25.16 5.2 41.4 36 -8.7 16.4
13:05 1023 30.21 852 25.16 5.2 41.4 37 -8.3 17
13:10 1023 30.21 852 25.16 5.2 41.4 38 -7.8 17.9
13:15 1023 30.21 852 25.16 5.2 41.4 38 -7.9 17.8
13:20 1023 30.21 852 25.16 5.1 41.2 38 -8 17.7
13:25 1023 30.21 852 25.16 5.1 41.2 35 -9 15.7
13:30 1023 30.21 852 25.16 5 41 37 -8.6 16.5
13:35 1023 30.21 852 25.16 5.2 41.3 35 -9 15.8
13:40 1023 30.21 852 25.16 5.4 41.6 33 -9.5 14.9
13:45 1023 30.21 852 25.16 5.3 41.5 35 -9 15.7
13:50 1023 30.21 852 25.16 5.5 41.8 34 -9.2 15.4
13:55 1023 30.21 852 25.16 5.4 41.7 33 -9.5 14.8
14:00 1023 30.21 852 25.16 5.4 41.6 33 -9.5 14.9
14:05 1023 30.21 852 25.16 5.5 42 34 -9.3 15.3
14:10 1023 30.21 852 25.16 5.5 41.9 33 -9.4 15.1
14:15 1023 30.21 852 25.16 5.6 42.1 33 -9.3 15.3
14:20 1023 30.21 852 25.16 5.6 42 33 -9.4 15.1
14:25 1023 30.21 852 25.16 5.5 41.9 33 -9.5 14.8
14:30 1023 30.21 852 25.16 5.6 42.1 33 -9.5 14.9
14:35 1023 30.21 852 25.16 5.6 42.1 34 -9 15.8
14:40 1023 30.21 852 25.16 5.5 42 35 -8.9 15.9
14:45 1023 30.21 852 25.16 5.5 41.9 34 -9.1 15.7
14:50 1023 30.21 852 25.16 5.5 41.9 33 -9.4 15
14:55 1023 30.21 852 25.16 5.6 42.1 33 -9.6 14.7
15:00 1023 30.21 852 25.16 5.6 42.1 32 -9.7 14.6
15:05 1023 30.21 852 25.16 5.6 42.1 33 -9.5 14.9
15:10 1023 30.21 852 25.16 5.7 42.3 34 -9.1 15.7
15:15 1023 30.21 852 25.16 5.7 42.3 37 -7.8 17.9
15:20 1023 30.21 852 25.16 5.6 42.1 38 -7.8 18
15:25 1023 30.21 852 25.16 5.5 41.9 38 -7.6 18.4
15:30 1023 30.21 852 25.16 5.4 41.8 38 -7.7 18.1
15:35 1023 30.21 852 25.16 5.4 41.7 38 -7.8 18
15:40 1023 30.21 852 25.16 5.4 41.7 37 -8 17.5
15:45 1023 30.21 852 25.16 5.5 41.8 37 -8.2 17.2
15:50 1023 30.21 852 25.16 5.4 41.8 37 -8.1 17.4
15:55 1023 30.21 853 25.19 5.4 41.7 38 -7.9 17.7
16:00 1023 30.21 853 25.19 5.4 41.7 39 -7.7 18.2
16:05 1023 30.21 853 25.19 5.4 41.7 43 -6.1 20.9
16:10 1023 30.21 853 25.19 5.3 41.5 43 -6.4 20.4
16:15 1023 30.21 853 25.19 5.1 41.2 43 -6.5 20.3
16:20 1023 30.21 853 25.19 5 40.9 43 -6.7 20
16:25 1023 30.21 853 25.19 4.6 40.3 44 -6.8 19.8
16:30 1023 30.21 852 25.16 4.5 40 44 -6.9 19.6
16:35 1023 30.21 853 25.19 4.7 40.5 43 -7 19.5
16:40 1023 30.21 853 25.19 4.7 40.4 44 -6.6 20.2
16:45 1023 30.21 853 25.19 4.7 40.5 42 -7 19.4
16:50 1023 30.21 853 25.19 4.9 40.8 43 -6.6 20
16:55 1023 30.21 853 25.19 4.8 40.6 45 -6.1 21.1
17:00 1023 30.21 853 25.19 4.7 40.5 44 -6.6 20.1
17:05 1023 30.21 853 25.19 4.7 40.4 43 -6.8 19.8
17:10 1023 30.21 853 25.19 4.6 40.3 44 -6.7 19.9
17:15 1024 30.24 853 25.19 4.5 40.1 44 -6.7 19.9
17:20 1024 30.24 853 25.19 4.5 40.2 45 -6.5 20.3
17:25 1024 30.24 853 25.19 4.5 40.1 45 -6.4 20.5
17:30 1024 30.24 853 25.19 4.2 39.6 46 -6.4 20.5
17:35 1024 30.24 853 25.19 4 39.2 47 -6.3 20.7
17:40 1024 30.24 853 25.19 3.8 38.9 48 -6.3 20.7
17:45 1024 30.24 853 25.19 3.7 38.6 48 -6.3 20.7
17:50 1024 30.24 853 25.19 3.6 38.4 49 -6.2 20.9
17:55 1024 30.24 853 25.19 3.4 38.2 52 -5.5 22.1
18:00 1024 30.24 853 25.19 2.9 37.2 56 -5 23
18:05 1024 30.24 853 25.19 2.4 36.4 57 -5.3 22.4
18:10 1024 30.24 853 25.19 2.2 36 58 -5.3 22.5
18:15 1024 30.24 853 25.19 2.3 36.1 56 -5.7 21.8
18:20 1024 30.24 853 25.19 2.3 36.2 56 -5.5 22.2
18:25 1024 30.24 853 25.19 2.1 35.9 56 -5.7 21.7
18:30 1024 30.24 853 25.19 2.1 35.9 55 -6 21.2
18:35 1024 30.24 853 25.19 2.2 36 56 -5.6 21.9
18:40 1024 30.24 853 25.19 2.2 35.9 56 -5.7 21.7
18:45 1024 30.24 853 25.19 2.1 35.8 56 -5.7 21.7
18:50 1024 30.24 854 25.22 2.1 35.7 59 -5.2 22.7
18:55 1024 30.24 854 25.22 1.5 34.8 61 -5.1 22.8
19:00 1024 30.24 854 25.22 1.2 34.2 62 -5.2 22.7
19:05 1024 30.24 854 25.22 1.2 34.2 62 -5.3 22.4
19:10 1025 30.27 854 25.22 1.3 34.3 61 -5.5 22.1
19:15 1025 30.27 854 25.22 1.4 34.5 59 -5.7 21.8
19:20 1025 30.27 854 25.22 1.6 34.9 56 -6.2 20.8
19:25 1025 30.27 854 25.22 1.8 35.3 58 -5.7 21.7
19:30 1025 30.27 854 25.22 1.7 35 60 -5.3 22.5
19:35 1025 30.27 854 25.22 1.4 34.5 61 -5.4 22.4
19:40 1025 30.27 854 25.22 1.3 34.4 61 -5.3 22.4
19:45 1025 30.27 854 25.22 1.5 34.7 56 -6.2 20.8
19:50 1025 30.27 854 25.22 1.6 34.9 58 -5.7 21.7
19:55 1025 30.27 854 25.22 1.7 35 56 -6.1 20.9
20:00 1025 30.27 854 25.22 1.4 34.6 61 -5.3 22.5
20:05 1025 30.27 854 25.22 1.2 34.2 63 -5 23
20:10 1025 30.27 854 25.22 1.1 34.1 63 -5.1 22.8
20:15 1025 30.27 854 25.22 1.2 34.2 61 -5.5 22.1
20:20 1025 30.27 854 25.22 1.4 34.5 59 -5.6 21.9
20:25 1025 30.27 854 25.22 1.4 34.5 61 -5.3 22.4
20:30 1025 30.27 854 25.22 1.3 34.4 60 -5.6 21.9
20:35 1025 30.27 854 25.22 1.4 34.6 59 -5.6 21.9
20:40 1025 30.27 854 25.22 1.5 34.6 60 -5.5 22.2
20:45 1025 30.27 854 25.22 1.3 34.4 60 -5.5 22.1
20:50 1025 30.27 854 25.22 1.4 34.5 58 -5.9 21.3
20:55 1025 30.27 854 25.22 1.5 34.7 60 -5.5 22
21:00 1025 30.27 854 25.22 1.5 34.6 58 -5.9 21.5
21:05 1025 30.27 854 25.22 1.5 34.6 59 -5.7 21.7
21:10 1025 30.27 854 25.22 1.5 34.7 57 -6.2 20.9
21:15 1025 30.27 854 25.22 1.6 34.9 57 -5.9 21.3
21:20 1025 30.27 854 25.22 1.6 34.9 58 -5.8 21.5
21:25 1025 30.27 854 25.22 1.5 34.8 58 -5.8 21.6
21:30 1025 30.27 854 25.22 1.5 34.7 60 -5.5 22.1
21:35 1025 30.27 854 25.22 1.4 34.6 58 -6 21.1
21:40 1025 30.27 854 25.22 1.5 34.7 55 -6.6 20.2
21:45 1025 30.27 854 25.22 1.7 35.1 56 -6.1 20.9
21:50 1025 30.27 854 25.22 1.8 35.2 58 -5.8 21.6
21:55 1025 30.27 854 25.22 1.4 34.6 61 -5.3 22.5
22:00 1025 30.27 855 25.25 1.3 34.3 60 -5.7 21.7
22:05 1025 30.27 855 25.25 1.3 34.3 61 -5.4 22.2
22:10 1025 30.27 855 25.25 1.3 34.3 60 -5.8 21.6
22:15 1026 30.3 855 25.25 1.5 34.7 60 -5.4 22.3
22:20 1026 30.3 855 25.25 1.5 34.8 60 -5.4 22.2
22:25 1026 30.3 855 25.25 1.5 34.8 58 -5.8 21.6
22:30 1026 30.3 855 25.25 1.7 35.1 57 -5.8 21.5
22:35 1026 30.3 855 25.25 1.7 35.1 63 -4.6 23.7
22:40 1026 30.3 855 25.25 1.4 34.5 61 -5.3 22.5
22:45 1026 30.3 855 25.25 1.5 34.7 62 -5.1 22.9
22:50 1026 30.3 855 25.25 1.3 34.3 63 -4.9 23.1
22:55 1026 30.3 855 25.25 1.3 34.3 62 -5.1 22.7
23:00 1026 30.3 855 25.25 1.3 34.4 56 -6.5 20.3
23:05 1026 30.3 855 25.25 1.7 35.1 53 -6.8 19.8
23:10 1026 30.3 855 25.25 2.1 35.7 52 -6.9 19.7
23:15 1026 30.3 855 25.25 2.2 36 53 -6.4 20.4
23:20 1026 30.3 855 25.25 2.1 35.7 57 -5.6 22
23:25 1026 30.3 855 25.25 1.9 35.5 59 -5.2 22.7
23:30 1026 30.3 855 25.25 1.9 35.5 58 -5.6 21.9
23:35 1026 30.3 855 25.25 1.8 35.2 58 -5.7 21.7
23:40 1026 30.3 855 25.25 1.7 35 58 -5.8 21.6
23:45 1026 30.3 855 25.25 1.7 35 56 -6.1 20.9
23:50 1026 30.3 855 25.25 1.6 34.8 61 -5.2 22.7
23:55 1026 30.3 855 25.25 1.3 34.4 58 -5.9 21.3
24:00 1026 30.3 855 25.25 1.3 34.3 61 -5.4 22.2